Time;durP1;ratioP1;P1;durP2;ratioP2;P2;SDS_P1;SDS_P2;PMS_P1;PMS_P2;Temp;Humidity;BMP_temperature;BMP_pressure;BME280_temperature;BME280_humidity;BME280_pressure;Samples;Min_cycle;Max_cycle;Signal;HPM_P1;HPM_P2
2022/01/06 00:01:34;;;;;;;3.50;1.20;;;;;;;;;;5009244;28;20287;-62
2022/01/06 00:04:01;;;;;;;3.77;0.90;;;;;;;;;;5001981;28;20689;-63
2022/01/06 00:06:29;;;;;;;1.40;1.13;;;;;;;;;;4998097;28;20332;-62
2022/01/06 00:08:59;;;;;;;0.67;0.67;;;;;;;;;;4999709;28;20299;-63
2022/01/06 00:11:26;;;;;;;0.60;0.60;;;;;;;;;;5009314;28;20304;-62
2022/01/06 00:13:58;;;;;;;2.07;1.20;;;;;;;;;;5007043;28;20600;-62
2022/01/06 00:16:36;;;;;;;1.93;0.70;;;;;;;;;;5001161;28;20209;-62
2022/01/06 00:24:33;;;;;;;1.33;0.77;;;;;;;;;;5007268;28;20258;-63
2022/01/06 00:27:00;;;;;;;0.80;0.80;;;;;;;;;;5008645;28;20205;-62
2022/01/06 00:29:27;;;;;;;0.50;0.50;;;;;;;;;;5006547;28;20663;-62
2022/01/06 00:31:55;;;;;;;0.80;0.60;;;;;;;;;;5007751;28;20215;-63
2022/01/06 00:34:23;;;;;;;2.63;1.00;;;;;;;;;;5008743;28;20220;-62
2022/01/06 00:36:50;;;;;;;1.27;0.80;;;;;;;;;;5007887;28;20769;-62
2022/01/06 00:39:17;;;;;;;1.60;0.63;;;;;;;;;;5006668;28;20622;-62
2022/01/06 00:41:44;;;;;;;0.40;0.40;;;;;;;;;;5005598;28;20221;-62
2022/01/06 00:44:11;;;;;;;0.67;0.67;;;;;;;;;;4999587;28;20212;-62
2022/01/06 00:46:38;;;;;;;1.20;0.83;;;;;;;;;;5001319;28;20210;-63
2022/01/06 00:49:06;;;;;;;0.90;0.80;;;;;;;;;;4998802;28;20210;-62
2022/01/06 00:51:34;;;;;;;1.00;0.53;;;;;;;;;;4994019;28;20259;-62
2022/01/06 00:54:01;;;;;;;1.53;0.57;;;;;;;;;;5007369;28;20209;-62
2022/01/06 00:56:28;;;;;;;2.37;0.83;;;;;;;;;;5007917;28;20212;-62
2022/01/06 00:58:55;;;;;;;0.30;0.30;;;;;;;;;;5006451;28;20232;-62
2022/01/06 01:01:22;;;;;;;0.70;0.70;;;;;;;;;;5005048;28;20223;-62
2022/01/06 01:03:49;;;;;;;0.80;0.80;;;;;;;;;;4988025;28;20774;-61
2022/01/06 01:06:17;;;;;;;1.03;0.60;;;;;;;;;;4988122;28;20220;-61
2022/01/06 01:08:44;;;;;;;3.80;0.97;;;;;;;;;;4988117;28;20557;-61
2022/01/06 01:11:11;;;;;;;0.67;0.63;;;;;;;;;;4988473;28;20276;-61
2022/01/06 01:13:54;;;;;;;0.57;0.57;;;;;;;;;;5000011;28;20212;-62
2022/01/06 01:16:24;;;;;;;0.40;0.40;;;;;;;;;;4987768;28;20783;-61
2022/01/06 01:18:51;;;;;;;0.40;0.40;;;;;;;;;;4987858;28;20233;-61
2022/01/06 01:21:20;;;;;;;0.50;0.50;;;;;;;;;;4991656;28;20653;-61
2022/01/06 01:23:47;;;;;;;0.43;0.43;;;;;;;;;;5006197;28;20270;-62
2022/01/06 01:26:15;;;;;;;0.77;0.40;;;;;;;;;;4991816;28;20243;-61
2022/01/06 01:28:46;;;;;;;0.40;0.40;;;;;;;;;;5002869;28;20213;-61
2022/01/06 01:31:24;;;;;;;0.70;0.60;;;;;;;;;;5005442;28;20216;-62
2022/01/06 01:33:52;;;;;;;0.90;0.40;;;;;;;;;;4987793;28;20316;-61
2022/01/06 01:36:21;;;;;;;0.43;0.40;;;;;;;;;;4988833;28;20245;-61
2022/01/06 01:38:48;;;;;;;0.30;0.30;;;;;;;;;;4987522;28;20229;-63
2022/01/06 01:41:15;;;;;;;0.57;0.53;;;;;;;;;;4988717;28;20212;-62
2022/01/06 01:43:43;;;;;;;0.60;0.50;;;;;;;;;;4987440;28;20217;-62
2022/01/06 01:46:13;;;;;;;1.40;0.37;;;;;;;;;;5002678;28;20224;-62
2022/01/06 01:48:46;;;;;;;0.23;0.23;;;;;;;;;;5006693;28;20679;-61
2022/01/06 01:51:13;;;;;;;4.47;0.60;;;;;;;;;;5006117;28;20239;-62
2022/01/06 01:53:41;;;;;;;0.23;0.23;;;;;;;;;;5005959;28;20223;-63
2022/01/06 01:56:09;;;;;;;0.40;0.40;;;;;;;;;;5010646;28;20256;-61
2022/01/06 01:58:37;;;;;;;0.30;0.20;;;;;;;;;;5010885;28;20496;-62
2022/01/06 02:01:04;;;;;;;0.43;0.43;;;;;;;;;;5006841;28;20216;-68
2022/01/06 02:03:31;;;;;;;3.40;0.50;;;;;;;;;;4999369;28;20220;-61
2022/01/06 02:05:58;;;;;;;2.10;0.20;;;;;;;;;;4998124;28;20201;-60
2022/01/06 02:08:25;;;;;;;3.03;0.33;;;;;;;;;;5003152;28;20214;-61
2022/01/06 02:10:54;;;;;;;1.30;0.27;;;;;;;;;;4999912;28;20201;-60
2022/01/06 02:13:23;;;;;;;0.23;0.23;;;;;;;;;;5001248;28;20207;-61
2022/01/06 02:15:50;;;;;;;0.77;0.20;;;;;;;;;;5001099;28;20220;-61
2022/01/06 02:18:18;;;;;;;0.17;0.17;;;;;;;;;;4999443;28;20234;-61
2022/01/06 02:20:46;;;;;;;0.30;0.30;;;;;;;;;;4998626;28;20213;-61
2022/01/06 02:23:13;;;;;;;2.03;0.80;;;;;;;;;;4997043;28;20216;-61
2022/01/06 02:25:40;;;;;;;0.20;0.20;;;;;;;;;;5000798;28;20198;-61
2022/01/06 02:28:07;;;;;;;0.70;0.30;;;;;;;;;;5000066;28;20593;-61
2022/01/06 02:30:36;;;;;;;0.47;0.33;;;;;;;;;;5000843;28;20716;-61
2022/01/06 02:33:05;;;;;;;0.70;0.30;;;;;;;;;;5000038;28;20214;-61
2022/01/06 02:35:32;;;;;;;0.63;0.40;;;;;;;;;;4998685;28;20205;-62
2022/01/06 02:38:01;;;;;;;0.20;0.20;;;;;;;;;;5000935;28;20673;-61
2022/01/06 02:40:28;;;;;;;1.30;0.30;;;;;;;;;;5000338;28;20216;-61
2022/01/06 02:42:56;;;;;;;0.57;0.57;;;;;;;;;;5002281;28;20265;-61
2022/01/06 02:45:26;;;;;;;0.30;0.30;;;;;;;;;;4999114;28;20233;-60
2022/01/06 02:47:53;;;;;;;0.50;0.50;;;;;;;;;;5000999;28;20295;-61
2022/01/06 02:50:20;;;;;;;1.70;0.50;;;;;;;;;;5000721;28;20337;-62
2022/01/06 02:52:47;;;;;;;0.40;0.40;;;;;;;;;;5001241;28;20267;-62
2022/01/06 02:55:16;;;;;;;0.40;0.40;;;;;;;;;;5000246;28;20215;-62
2022/01/06 02:57:43;;;;;;;0.30;0.30;;;;;;;;;;5000655;28;20265;-61
2022/01/06 03:00:11;;;;;;;0.20;0.20;;;;;;;;;;5001296;28;20239;-62
2022/01/06 03:02:41;;;;;;;0.27;0.27;;;;;;;;;;4999004;28;20272;-62
2022/01/06 03:05:08;;;;;;;1.43;0.47;;;;;;;;;;4999040;28;20561;-61
2022/01/06 03:07:35;;;;;;;4.10;0.60;;;;;;;;;;4998830;28;20207;-61
2022/01/06 03:10:04;;;;;;;5.93;0.77;;;;;;;;;;4999228;28;20216;-62
2022/01/06 03:12:39;;;;;;;0.60;0.40;;;;;;;;;;5000987;28;20672;-61
2022/01/06 03:15:06;;;;;;;0.30;0.30;;;;;;;;;;5000483;28;20204;-61
2022/01/06 03:17:33;;;;;;;1.13;0.20;;;;;;;;;;4998787;28;20623;-61
2022/01/06 03:20:00;;;;;;;2.63;0.30;;;;;;;;;;5001302;28;20287;-61
2022/01/06 03:22:28;;;;;;;0.40;0.40;;;;;;;;;;4998751;28;20343;-61
2022/01/06 03:24:55;;;;;;;1.13;0.30;;;;;;;;;;5001005;28;20271;-61
2022/01/06 03:27:22;;;;;;;1.50;0.40;;;;;;;;;;4999706;28;20264;-61
2022/01/06 03:29:50;;;;;;;2.47;0.40;;;;;;;;;;4999359;28;20230;-61
2022/01/06 03:32:18;;;;;;;1.20;0.60;;;;;;;;;;4999121;28;20296;-62
2022/01/06 03:34:45;;;;;;;1.90;0.37;;;;;;;;;;5002306;28;20209;-61
2022/01/06 03:37:12;;;;;;;0.50;0.50;;;;;;;;;;4999404;28;20264;-62
2022/01/06 03:39:40;;;;;;;0.30;0.20;;;;;;;;;;5000122;28;20231;-61
2022/01/06 03:42:07;;;;;;;0.30;0.30;;;;;;;;;;5002061;28;20214;-62
2022/01/06 03:44:34;;;;;;;0.20;0.20;;;;;;;;;;4998778;28;20256;-62
2022/01/06 03:47:05;;;;;;;0.80;0.40;;;;;;;;;;4999190;28;20560;-61
2022/01/06 03:49:32;;;;;;;0.50;0.23;;;;;;;;;;5000526;28;20331;-62
2022/01/06 03:51:59;;;;;;;2.47;0.30;;;;;;;;;;5000674;28;20298;-61
2022/01/06 03:54:26;;;;;;;2.30;0.70;;;;;;;;;;4999075;28;20201;-62
2022/01/06 03:56:53;;;;;;;0.53;0.40;;;;;;;;;;4998238;28;20628;-61
2022/01/06 03:59:20;;;;;;;0.53;0.40;;;;;;;;;;4999535;28;20230;-62
2022/01/06 04:01:48;;;;;;;2.33;0.53;;;;;;;;;;4999439;28;20213;-62
2022/01/06 04:04:16;;;;;;;0.63;0.47;;;;;;;;;;4998577;28;20263;-61
2022/01/06 04:06:44;;;;;;;2.53;0.47;;;;;;;;;;4999461;28;20206;-62
2022/01/06 04:09:24;;;;;;;1.57;0.30;;;;;;;;;;4997388;28;20742;-62
2022/01/06 04:11:51;;;;;;;0.20;0.20;;;;;;;;;;4997434;28;20225;-61
2022/01/06 04:14:18;;;;;;;3.73;0.30;;;;;;;;;;4999109;28;20951;-61
2022/01/06 04:16:46;;;;;;;0.30;0.30;;;;;;;;;;5000189;28;20208;-62
2022/01/06 04:19:13;;;;;;;0.57;0.37;;;;;;;;;;4998324;28;20640;-61
2022/01/06 04:21:41;;;;;;;0.20;0.20;;;;;;;;;;4997870;28;20206;-62
2022/01/06 04:24:08;;;;;;;1.10;0.20;;;;;;;;;;5000374;28;20268;-61
2022/01/06 04:26:35;;;;;;;2.47;0.40;;;;;;;;;;4999858;28;20419;-61
2022/01/06 04:29:02;;;;;;;1.10;0.33;;;;;;;;;;4999632;28;20194;-62
2022/01/06 04:31:29;;;;;;;0.30;0.20;;;;;;;;;;4999352;28;20735;-61
2022/01/06 04:33:56;;;;;;;1.23;0.40;;;;;;;;;;5000202;28;20209;-61
2022/01/06 04:36:23;;;;;;;1.50;0.50;;;;;;;;;;5002821;28;20271;-62
2022/01/06 04:38:51;;;;;;;3.33;0.40;;;;;;;;;;5003008;28;20433;-62
2022/01/06 04:41:18;;;;;;;0.30;0.30;;;;;;;;;;5004265;28;20205;-61
2022/01/06 04:43:45;;;;;;;0.63;0.40;;;;;;;;;;5001547;28;20203;-61
2022/01/06 04:46:12;;;;;;;0.27;0.27;;;;;;;;;;5002759;28;20213;-61
2022/01/06 04:48:39;;;;;;;2.73;0.70;;;;;;;;;;5001967;28;20209;-61
2022/01/06 04:51:07;;;;;;;1.43;0.80;;;;;;;;;;5003193;28;20229;-61
2022/01/06 04:53:34;;;;;;;2.97;0.50;;;;;;;;;;5002348;28;20228;-62
2022/01/06 04:56:03;;;;;;;0.60;0.40;;;;;;;;;;5002220;28;20735;-61
2022/01/06 04:58:32;;;;;;;0.60;0.43;;;;;;;;;;5001402;28;20212;-62
2022/01/06 05:00:59;;;;;;;2.57;0.57;;;;;;;;;;5000137;28;20227;-61
2022/01/06 05:03:26;;;;;;;0.67;0.40;;;;;;;;;;4999104;28;20200;-61
2022/01/06 05:05:53;;;;;;;1.03;0.90;;;;;;;;;;5001390;28;20669;-61
2022/01/06 05:08:20;;;;;;;0.40;0.40;;;;;;;;;;5002677;28;20217;-61
2022/01/06 05:10:47;;;;;;;2.83;0.67;;;;;;;;;;5001862;28;20205;-61
2022/01/06 05:13:15;;;;;;;0.23;0.23;;;;;;;;;;5003819;28;20675;-61
2022/01/06 05:15:42;;;;;;;2.43;0.40;;;;;;;;;;5003968;28;20236;-61
2022/01/06 05:18:09;;;;;;;8.00;0.60;;;;;;;;;;5001501;28;20205;-61
2022/01/06 05:20:39;;;;;;;0.50;0.50;;;;;;;;;;5012008;28;20237;-61
2022/01/06 05:23:06;;;;;;;1.60;1.13;;;;;;;;;;5011807;28;20209;-61
2022/01/06 05:25:33;;;;;;;0.40;0.40;;;;;;;;;;5006762;28;20202;-61
2022/01/06 05:28:00;;;;;;;0.30;0.30;;;;;;;;;;5001565;28;20208;-61
2022/01/06 05:30:28;;;;;;;1.50;0.30;;;;;;;;;;5011925;28;20216;-61
2022/01/06 05:32:55;;;;;;;2.37;0.53;;;;;;;;;;5003467;28;20382;-60
2022/01/06 05:35:22;;;;;;;0.30;0.30;;;;;;;;;;4993285;28;20209;-60
2022/01/06 05:37:49;;;;;;;2.07;1.00;;;;;;;;;;5009529;28;20217;-60
2022/01/06 05:40:16;;;;;;;0.50;0.50;;;;;;;;;;5011020;28;20734;-60
2022/01/06 05:42:44;;;;;;;3.37;0.47;;;;;;;;;;5011557;28;20205;-60
2022/01/06 05:45:12;;;;;;;0.47;0.47;;;;;;;;;;5010856;28;20260;-60
2022/01/06 05:47:40;;;;;;;1.67;0.30;;;;;;;;;;5011160;28;20628;-60
2022/01/06 05:50:08;;;;;;;0.67;0.60;;;;;;;;;;5011434;28;20228;-60
2022/01/06 05:52:35;;;;;;;0.43;0.43;;;;;;;;;;5009103;28;20251;-60
2022/01/06 05:55:02;;;;;;;0.93;0.30;;;;;;;;;;4993620;28;20220;-60
2022/01/06 05:57:30;;;;;;;0.40;0.40;;;;;;;;;;5011119;28;20271;-61
2022/01/06 05:59:57;;;;;;;5.00;0.77;;;;;;;;;;5010857;28;20233;-60
2022/01/06 06:02:24;;;;;;;2.87;1.07;;;;;;;;;;5011188;28;20217;-60
2022/01/06 06:04:53;;;;;;;0.50;0.30;;;;;;;;;;5010108;28;20259;-60
2022/01/06 06:07:20;;;;;;;0.10;0.10;;;;;;;;;;5006298;28;20294;-60
2022/01/06 06:09:47;;;;;;;0.20;0.20;;;;;;;;;;5009927;28;20689;-60
2022/01/06 06:12:14;;;;;;;4.40;0.50;;;;;;;;;;5010274;28;20299;-60
2022/01/06 06:14:42;;;;;;;4.43;0.57;;;;;;;;;;5010291;28;21033;-61
2022/01/06 06:17:09;;;;;;;0.40;0.40;;;;;;;;;;5009455;28;20279;-61
2022/01/06 06:19:36;;;;;;;2.70;0.57;;;;;;;;;;5009826;28;20228;-61
2022/01/06 06:22:04;;;;;;;2.17;0.77;;;;;;;;;;5010179;28;20271;-61
2022/01/06 06:24:33;;;;;;;3.90;0.30;;;;;;;;;;5005264;28;20208;-61
2022/01/06 06:27:00;;;;;;;0.20;0.20;;;;;;;;;;5009017;28;20296;-60
2022/01/06 06:29:27;;;;;;;0.67;0.30;;;;;;;;;;5009350;28;20208;-61
2022/01/06 06:31:54;;;;;;;0.40;0.40;;;;;;;;;;5009467;28;20266;-61
2022/01/06 06:34:21;;;;;;;0.47;0.47;;;;;;;;;;4994293;28;20202;-61
2022/01/06 06:36:48;;;;;;;1.33;0.80;;;;;;;;;;4992666;28;20732;-61
2022/01/06 06:39:17;;;;;;;0.20;0.20;;;;;;;;;;4990201;28;20207;-61
2022/01/06 06:41:44;;;;;;;1.63;0.67;;;;;;;;;;4994671;28;20228;-61
2022/01/06 06:44:11;;;;;;;6.17;0.53;;;;;;;;;;5000480;28;20212;-61
2022/01/06 06:46:38;;;;;;;0.20;0.20;;;;;;;;;;4993946;28;20214;-60
2022/01/06 06:49:05;;;;;;;0.30;0.30;;;;;;;;;;5004714;28;20216;-60
2022/01/06 06:51:32;;;;;;;3.77;1.20;;;;;;;;;;5009628;28;20217;-60
2022/01/06 06:53:59;;;;;;;1.80;0.87;;;;;;;;;;5009236;28;20211;-60
2022/01/06 06:56:27;;;;;;;2.50;1.40;;;;;;;;;;4992858;28;20231;-60
2022/01/06 06:58:54;;;;;;;4.00;1.40;;;;;;;;;;5010154;28;20216;-60
2022/01/06 07:01:21;;;;;;;2.83;1.00;;;;;;;;;;5009405;28;20228;-59
2022/01/06 07:03:48;;;;;;;6.37;1.43;;;;;;;;;;5008868;28;20212;-60
2022/01/06 07:06:15;;;;;;;1.37;1.27;;;;;;;;;;4990332;28;20263;-60
2022/01/06 07:08:42;;;;;;;0.90;0.90;;;;;;;;;;5009801;28;20215;-60
2022/01/06 07:11:09;;;;;;;0.80;0.40;;;;;;;;;;5008999;28;20216;-60
2022/01/06 07:13:38;;;;;;;1.37;0.50;;;;;;;;;;5009088;28;20209;-60
2022/01/06 07:16:05;;;;;;;0.57;0.30;;;;;;;;;;5009065;28;20713;-60
2022/01/06 07:18:32;;;;;;;3.53;0.40;;;;;;;;;;4992325;28;20210;-60
2022/01/06 07:20:59;;;;;;;0.20;0.20;;;;;;;;;;5007729;28;20237;-60
2022/01/06 07:23:26;;;;;;;0.40;0.40;;;;;;;;;;5009502;28;20213;-60
2022/01/06 07:25:53;;;;;;;0.30;0.30;;;;;;;;;;5006990;28;20729;-62
2022/01/06 07:28:20;;;;;;;0.93;0.57;;;;;;;;;;5007273;28;20205;-62
2022/01/06 07:30:48;;;;;;;0.50;0.30;;;;;;;;;;4989369;28;20799;-62
2022/01/06 07:33:15;;;;;;;4.73;0.77;;;;;;;;;;5003043;28;20259;-62
2022/01/06 07:35:42;;;;;;;5.13;2.53;;;;;;;;;;5008399;28;20208;-62
2022/01/06 07:38:09;;;;;;;13.30;2.37;;;;;;;;;;5008881;28;20212;-62
2022/01/06 07:40:36;;;;;;;6.17;1.90;;;;;;;;;;4990931;28;20388;-62
2022/01/06 07:43:04;;;;;;;10.20;3.83;;;;;;;;;;5000948;28;20201;-61
2022/01/06 07:45:31;;;;;;;9.53;2.07;;;;;;;;;;5000648;28;20675;-62
2022/01/06 07:48:02;;;;;;;1.77;1.10;;;;;;;;;;5000273;28;20216;-62
2022/01/06 07:50:29;;;;;;;0.50;0.50;;;;;;;;;;5009091;28;20232;-62
2022/01/06 07:52:56;;;;;;;0.73;0.73;;;;;;;;;;5002947;28;20233;-61
2022/01/06 07:55:23;;;;;;;2.47;0.77;;;;;;;;;;5007998;28;20259;-62
2022/01/06 07:57:50;;;;;;;3.30;1.07;;;;;;;;;;5008397;28;20212;-62
2022/01/06 08:00:18;;;;;;;8.80;1.43;;;;;;;;;;5008662;28;20331;-62
2022/01/06 08:02:45;;;;;;;1.77;0.87;;;;;;;;;;5007918;28;20649;-62
2022/01/06 08:05:15;;;;;;;1.27;1.00;;;;;;;;;;5007381;28;20698;-62
2022/01/06 08:07:42;;;;;;;0.77;0.77;;;;;;;;;;5002511;28;20205;-62
2022/01/06 08:10:10;;;;;;;1.47;1.23;;;;;;;;;;5001269;28;20622;-62
2022/01/06 08:12:37;;;;;;;3.60;0.90;;;;;;;;;;5000713;28;20227;-62
2022/01/06 08:15:05;;;;;;;5.63;1.10;;;;;;;;;;5012270;28;20213;-62
2022/01/06 08:17:32;;;;;;;6.80;1.37;;;;;;;;;;5011562;28;20212;-62
2022/01/06 08:19:59;;;;;;;2.40;0.53;;;;;;;;;;5012212;28;20217;-62
2022/01/06 08:22:29;;;;;;;1.33;1.10;;;;;;;;;;5012605;28;20239;-61
2022/01/06 08:24:56;;;;;;;5.97;1.30;;;;;;;;;;5012181;28;20209;-62
2022/01/06 08:27:23;;;;;;;2.97;1.57;;;;;;;;;;5001818;28;20208;-62
2022/01/06 08:29:51;;;;;;;2.50;0.80;;;;;;;;;;4992819;28;20214;-62
2022/01/06 08:32:18;;;;;;;3.63;1.47;;;;;;;;;;4992723;28;20214;-62
2022/01/06 08:34:45;;;;;;;0.93;0.67;;;;;;;;;;5005789;28;20657;-62
2022/01/06 08:37:12;;;;;;;3.80;1.10;;;;;;;;;;5005774;28;20260;-62
2022/01/06 08:39:40;;;;;;;4.53;1.13;;;;;;;;;;5002175;28;20216;-62
2022/01/06 08:42:08;;;;;;;1.23;0.90;;;;;;;;;;5011842;28;20664;-62
2022/01/06 08:44:35;;;;;;;3.07;1.03;;;;;;;;;;5009960;28;20263;-62
2022/01/06 08:47:03;;;;;;;4.67;0.90;;;;;;;;;;5011395;28;20221;-62
2022/01/06 08:49:31;;;;;;;3.53;0.67;;;;;;;;;;5011723;28;20234;-60
2022/01/06 08:51:58;;;;;;;6.47;0.60;;;;;;;;;;5011540;28;20241;-60
2022/01/06 08:54:25;;;;;;;1.00;0.60;;;;;;;;;;5010726;28;20736;-60
2022/01/06 08:56:53;;;;;;;0.53;0.53;;;;;;;;;;5012404;28;20217;-60
2022/01/06 08:59:20;;;;;;;2.37;0.60;;;;;;;;;;4998361;28;20201;-60
2022/01/06 09:01:47;;;;;;;2.53;0.70;;;;;;;;;;4992613;28;20239;-64
2022/01/06 09:04:15;;;;;;;0.60;0.47;;;;;;;;;;5001704;28;20284;-60
2022/01/06 09:06:42;;;;;;;4.33;1.13;;;;;;;;;;5011030;28;20208;-61
2022/01/06 09:09:09;;;;;;;1.20;0.57;;;;;;;;;;4998622;28;20210;-61
2022/01/06 09:11:36;;;;;;;0.67;0.43;;;;;;;;;;5002375;28;20241;-61
2022/01/06 09:14:05;;;;;;;1.00;0.90;;;;;;;;;;5011360;28;20743;-62
2022/01/06 09:16:35;;;;;;;0.40;0.40;;;;;;;;;;5011077;28;20260;-62
2022/01/06 09:19:02;;;;;;;0.60;0.60;;;;;;;;;;5009318;28;20216;-60
2022/01/06 09:21:29;;;;;;;0.80;0.60;;;;;;;;;;5011365;28;20588;-60
2022/01/06 09:23:57;;;;;;;3.50;0.50;;;;;;;;;;5011399;28;20216;-60
2022/01/06 09:26:24;;;;;;;1.37;0.67;;;;;;;;;;5001274;28;20216;-61
2022/01/06 09:28:51;;;;;;;7.73;1.70;;;;;;;;;;5001584;28;20583;-60
2022/01/06 09:31:19;;;;;;;5.00;1.00;;;;;;;;;;5001568;28;20251;-60
2022/01/06 09:33:46;;;;;;;3.63;0.90;;;;;;;;;;5001682;28;20259;-60
2022/01/06 09:36:13;;;;;;;5.87;0.80;;;;;;;;;;5001055;28;20225;-60
2022/01/06 09:38:41;;;;;;;4.10;0.60;;;;;;;;;;5002354;28;20243;-61
2022/01/06 09:41:10;;;;;;;1.17;0.97;;;;;;;;;;4999182;28;20258;-61
2022/01/06 09:43:37;;;;;;;4.20;1.07;;;;;;;;;;5007617;28;20205;-61
2022/01/06 09:46:06;;;;;;;2.90;1.13;;;;;;;;;;5011495;28;20218;-61
2022/01/06 09:48:35;;;;;;;3.00;0.93;;;;;;;;;;5007954;28;20292;-61
2022/01/06 09:51:02;;;;;;;5.43;0.90;;;;;;;;;;5007071;28;20221;-61
2022/01/06 09:53:29;;;;;;;2.03;1.10;;;;;;;;;;5008236;28;20724;-63
2022/01/06 09:55:56;;;;;;;5.97;1.13;;;;;;;;;;4996542;28;20220;-61
2022/01/06 09:58:25;;;;;;;1.27;1.00;;;;;;;;;;5009846;28;20279;-61
2022/01/06 10:00:52;;;;;;;4.07;1.53;;;;;;;;;;5009857;28;20257;-61
2022/01/06 10:03:20;;;;;;;6.87;2.20;;;;;;;;;;5009877;28;20310;-61
2022/01/06 10:05:50;;;;;;;9.03;1.43;;;;;;;;;;5001375;28;20212;-61
2022/01/06 10:08:27;;;;;;;1.17;1.13;;;;;;;;;;4996047;28;20275;-61
2022/01/06 10:10:57;;;;;;;2.67;1.27;;;;;;;;;;5007308;28;20319;-61
2022/01/06 10:13:27;;;;;;;5.00;1.43;;;;;;;;;;5004483;28;20263;-61
2022/01/06 10:15:54;;;;;;;2.50;1.17;;;;;;;;;;5010305;28;20209;-61
2022/01/06 10:18:21;;;;;;;7.10;1.70;;;;;;;;;;5008399;28;20634;-61
2022/01/06 10:20:52;;;;;;;2.30;0.90;;;;;;;;;;4995583;28;20241;-61
2022/01/06 10:23:20;;;;;;;5.60;0.90;;;;;;;;;;4993621;28;20233;-61
2022/01/06 10:25:49;;;;;;;8.90;1.53;;;;;;;;;;5001257;28;20696;-61
2022/01/06 10:28:17;;;;;;;4.00;1.40;;;;;;;;;;4992135;28;20300;-62
2022/01/06 10:30:48;;;;;;;3.07;1.80;;;;;;;;;;5005549;28;20210;-62
2022/01/06 10:33:16;;;;;;;4.07;1.10;;;;;;;;;;5003073;28;20209;-65
2022/01/06 10:35:43;;;;;;;1.67;1.47;;;;;;;;;;5010114;28;20303;-61
2022/01/06 10:38:11;;;;;;;6.33;1.87;;;;;;;;;;5007680;28;20213;-61
2022/01/06 10:40:39;;;;;;;4.37;1.30;;;;;;;;;;5000615;28;20209;-61
2022/01/06 10:43:06;;;;;;;2.77;1.27;;;;;;;;;;4993615;28;20621;-61
2022/01/06 10:45:34;;;;;;;0.90;0.80;;;;;;;;;;5004367;28;20207;-61
2022/01/06 10:48:03;;;;;;;3.30;1.13;;;;;;;;;;5010094;28;20619;-62
2022/01/06 10:50:31;;;;;;;6.57;1.27;;;;;;;;;;5002091;28;20249;-61
2022/01/06 10:53:00;;;;;;;3.17;1.10;;;;;;;;;;4991341;28;20225;-61
2022/01/06 10:55:29;;;;;;;1.70;1.03;;;;;;;;;;4991527;28;20542;-61
2022/01/06 10:57:57;;;;;;;6.70;1.23;;;;;;;;;;5001184;28;20206;-60
2022/01/06 11:00:25;;;;;;;8.50;1.17;;;;;;;;;;5001344;28;20264;-61
2022/01/06 11:02:53;;;;;;;4.23;2.30;;;;;;;;;;5007502;28;20235;-61
2022/01/06 11:05:20;;;;;;;4.60;2.07;;;;;;;;;;5006907;28;20213;-61
2022/01/06 11:07:47;;;;;;;1.30;1.20;;;;;;;;;;5000021;28;20306;-61
2022/01/06 11:10:16;;;;;;;6.13;4.50;;;;;;;;;;5009494;28;20267;-62
2022/01/06 11:12:45;;;;;;;3.60;2.40;;;;;;;;;;5003467;28;20205;-61
2022/01/06 11:15:12;;;;;;;1.30;1.20;;;;;;;;;;5006574;28;20283;-61
2022/01/06 11:17:39;;;;;;;1.50;0.80;;;;;;;;;;5004076;28;20209;-61
2022/01/06 11:20:07;;;;;;;4.10;1.20;;;;;;;;;;5008531;28;20208;-61
2022/01/06 11:22:34;;;;;;;6.23;1.50;;;;;;;;;;4992288;28;20233;-60
2022/01/06 11:25:02;;;;;;;3.20;1.00;;;;;;;;;;5008925;28;20304;-60
2022/01/06 11:27:31;;;;;;;1.13;1.13;;;;;;;;;;5004875;28;20209;-62
2022/01/06 11:30:09;;;;;;;4.67;2.63;;;;;;;;;;5009301;28;20229;-61
2022/01/06 11:32:36;;;;;;;1.83;1.10;;;;;;;;;;5000080;28;20205;-62
2022/01/06 11:35:03;;;;;;;2.27;1.17;;;;;;;;;;5005086;28;20243;-61
2022/01/06 11:37:39;;;;;;;3.33;1.30;;;;;;;;;;5000298;28;20205;-62
2022/01/06 11:40:07;;;;;;;1.20;1.20;;;;;;;;;;5001197;28;20307;-61
2022/01/06 11:42:34;;;;;;;2.73;1.07;;;;;;;;;;5012314;28;20527;-61
2022/01/06 11:45:03;;;;;;;2.57;0.90;;;;;;;;;;5013595;28;20232;-61
2022/01/06 11:47:34;;;;;;;0.80;0.80;;;;;;;;;;5015989;28;20208;-61
2022/01/06 11:50:09;;;;;;;5.40;1.20;;;;;;;;;;5011736;28;20232;-62
2022/01/06 11:52:36;;;;;;;2.87;1.07;;;;;;;;;;5009617;28;20295;-61
2022/01/06 11:55:05;;;;;;;2.67;0.90;;;;;;;;;;5012956;28;20247;-61
2022/01/06 11:57:32;;;;;;;3.10;1.00;;;;;;;;;;5012439;28;20244;-62
2022/01/06 12:00:00;;;;;;;6.67;0.80;;;;;;;;;;4998328;28;20209;-61
2022/01/06 12:02:27;;;;;;;5.00;0.80;;;;;;;;;;4994536;28;20328;-60
2022/01/06 12:05:00;;;;;;;4.40;0.90;;;;;;;;;;5007913;28;20213;-61
2022/01/06 12:07:27;;;;;;;1.87;0.80;;;;;;;;;;5021508;28;20213;-61
2022/01/06 12:09:59;;;;;;;4.23;0.67;;;;;;;;;;5015516;28;20262;-61
2022/01/06 12:12:33;;;;;;;1.87;0.70;;;;;;;;;;5028315;28;20328;-62
2022/01/06 12:15:06;;;;;;;5.30;1.00;;;;;;;;;;5019707;28;20266;-62
2022/01/06 12:17:33;;;;;;;3.33;0.83;;;;;;;;;;5025232;28;21048;-61
2022/01/06 12:20:03;;;;;;;1.60;0.97;;;;;;;;;;5001548;28;20289;-61
2022/01/06 12:22:30;;;;;;;0.80;0.80;;;;;;;;;;5029857;28;20617;-61
2022/01/06 12:25:01;;;;;;;2.87;0.83;;;;;;;;;;5009991;28;20218;-62
2022/01/06 12:27:28;;;;;;;7.03;1.37;;;;;;;;;;5005367;28;20239;-62
2022/01/06 12:29:56;;;;;;;5.33;1.50;;;;;;;;;;5005194;28;20262;-62
2022/01/06 12:32:23;;;;;;;4.50;0.80;;;;;;;;;;5013561;28;20209;-61
2022/01/06 12:34:53;;;;;;;1.07;0.80;;;;;;;;;;5030426;28;20212;-61
2022/01/06 12:37:28;;;;;;;1.67;0.83;;;;;;;;;;5019756;28;20222;-62
2022/01/06 12:39:56;;;;;;;1.90;0.80;;;;;;;;;;5029269;28;20271;-61
2022/01/06 12:42:24;;;;;;;2.30;0.90;;;;;;;;;;5007431;28;20236;-62
2022/01/06 12:44:52;;;;;;;1.53;0.93;;;;;;;;;;5013232;28;20219;-62
2022/01/06 12:47:19;;;;;;;0.87;0.80;;;;;;;;;;5015664;28;20208;-61
2022/01/06 12:49:47;;;;;;;6.17;1.50;;;;;;;;;;5024218;28;20254;-61
2022/01/06 12:52:14;;;;;;;1.27;0.93;;;;;;;;;;5025451;28;20291;-62
2022/01/06 12:54:43;;;;;;;5.17;1.00;;;;;;;;;;5011240;28;20300;-62
2022/01/06 12:57:13;;;;;;;2.63;0.80;;;;;;;;;;5012241;28;20218;-64
2022/01/06 12:59:42;;;;;;;1.53;1.27;;;;;;;;;;5017767;28;20212;-65
2022/01/06 13:02:11;;;;;;;4.43;1.20;;;;;;;;;;5022478;28;20232;-61
2022/01/06 13:04:39;;;;;;;2.77;0.93;;;;;;;;;;5002288;28;20206;-63
2022/01/06 13:07:07;;;;;;;3.30;1.00;;;;;;;;;;5004587;28;20220;-61
2022/01/06 13:09:35;;;;;;;1.83;1.00;;;;;;;;;;5002334;28;20232;-62
2022/01/06 13:12:04;;;;;;;1.03;0.70;;;;;;;;;;5003359;28;20201;-62
2022/01/06 13:14:32;;;;;;;4.33;0.90;;;;;;;;;;4999827;28;20235;-62
2022/01/06 13:17:06;;;;;;;2.87;0.97;;;;;;;;;;4999434;28;20209;-63
2022/01/06 13:19:34;;;;;;;2.67;0.70;;;;;;;;;;5001067;28;20213;-69
2022/01/06 13:22:04;;;;;;;2.00;0.60;;;;;;;;;;5000887;28;20233;-61
2022/01/06 13:24:32;;;;;;;0.60;0.60;;;;;;;;;;5001056;28;20210;-62
2022/01/06 13:27:00;;;;;;;1.47;0.90;;;;;;;;;;5000941;28;20209;-61
2022/01/06 13:29:30;;;;;;;3.33;1.03;;;;;;;;;;5002023;28;20208;-61
2022/01/06 13:31:58;;;;;;;2.00;1.20;;;;;;;;;;5000999;28;20201;-61
2022/01/06 13:34:25;;;;;;;0.60;0.60;;;;;;;;;;5003117;28;20236;-61
2022/01/06 13:37:01;;;;;;;2.40;0.70;;;;;;;;;;4999880;28;20210;-61
2022/01/06 13:39:33;;;;;;;0.93;0.67;;;;;;;;;;5000794;28;20201;-61
2022/01/06 13:42:00;;;;;;;4.90;0.80;;;;;;;;;;4999746;28;20703;-62
2022/01/06 13:44:29;;;;;;;2.20;0.90;;;;;;;;;;5002354;28;20202;-61
2022/01/06 13:47:07;;;;;;;2.30;1.00;;;;;;;;;;5000166;28;20198;-61
2022/01/06 13:52:21;;;;;;;2.73;0.83;;;;;;;;;;5000074;28;20717;-61
2022/01/06 13:54:48;;;;;;;2.57;0.93;;;;;;;;;;4997910;28;20210;-62
2022/01/06 13:57:15;;;;;;;6.20;1.07;;;;;;;;;;5000991;28;20707;-61
2022/01/06 13:59:43;;;;;;;5.10;0.70;;;;;;;;;;5001015;28;20213;-61
2022/01/06 14:02:11;;;;;;;4.43;0.60;;;;;;;;;;4999889;28;20224;-62
2022/01/06 14:04:40;;;;;;;2.10;0.80;;;;;;;;;;4991510;28;20229;-65
2022/01/06 14:07:07;;;;;;;3.97;0.83;;;;;;;;;;4997721;28;20336;-62
2022/01/06 14:09:34;;;;;;;4.77;0.97;;;;;;;;;;4998385;28;20205;-61
2022/01/06 14:12:01;;;;;;;0.83;0.70;;;;;;;;;;5002542;28;20244;-61
2022/01/06 14:14:29;;;;;;;1.47;0.80;;;;;;;;;;4996628;28;20236;-62
2022/01/06 14:16:57;;;;;;;0.60;0.60;;;;;;;;;;4989284;28;20272;-62
2022/01/06 14:19:48;;;;;;;2.40;0.80;;;;;;;;;;4988005;28;20220;-62
2022/01/06 14:22:15;;;;;;;0.73;0.73;;;;;;;;;;4992528;28;20228;-62
2022/01/06 14:24:42;;;;;;;0.87;0.87;;;;;;;;;;4988903;28;20226;-62
2022/01/06 14:27:09;;;;;;;1.77;0.70;;;;;;;;;;5003954;28;20219;-62
2022/01/06 14:29:36;;;;;;;3.30;1.07;;;;;;;;;;5004776;28;20263;-61
2022/01/06 14:32:05;;;;;;;1.07;0.70;;;;;;;;;;5003539;28;20278;-62
2022/01/06 14:34:32;;;;;;;1.30;0.50;;;;;;;;;;4997477;28;20221;-63
2022/01/06 14:36:59;;;;;;;2.70;0.60;;;;;;;;;;5002763;28;20213;-62
2022/01/06 14:39:26;;;;;;;1.60;0.50;;;;;;;;;;5005534;28;20216;-62
2022/01/06 14:41:53;;;;;;;2.63;1.17;;;;;;;;;;4994347;28;20206;-62
2022/01/06 14:44:20;;;;;;;1.93;0.70;;;;;;;;;;4998069;28;20287;-62
2022/01/06 14:46:48;;;;;;;1.60;0.60;;;;;;;;;;5003380;28;20321;-62
2022/01/06 14:49:16;;;;;;;1.53;0.77;;;;;;;;;;5003297;28;20224;-61
2022/01/06 14:51:43;;;;;;;0.50;0.50;;;;;;;;;;4995180;28;20253;-62
2022/01/06 14:54:11;;;;;;;1.07;0.63;;;;;;;;;;4995435;28;20626;-62
2022/01/06 14:56:38;;;;;;;1.27;0.90;;;;;;;;;;5005532;28;20236;-62